Time;durP1;ratioP1;P1;durP2;ratioP2;P2;SDS_P1;SDS_P2;PMS_P1;PMS_P2;Temp;Humidity;BMP_temperature;BMP_pressure;BME280_temperature;BME280_humidity;BME280_pressure;Samples;Min_cycle;Max_cycle;Signal;HPM_P1;HPM_P2
2023/03/24 00:01:05;;;;;;;5.40;3.10;;;;;;;11.30;100.00;99730.53;4984473;28;20435;-82
2023/03/24 00:03:31;;;;;;;5.20;3.53;;;;;;;11.28;100.00;99724.50;4986395;28;20030;-81
2023/03/24 00:06:02;;;;;;;7.33;3.53;;;;;;;11.29;100.00;99737.00;4984586;28;20059;-82
2023/03/24 00:08:33;;;;;;;7.20;3.33;;;;;;;11.31;100.00;99717.78;4985686;28;20026;-82
2023/03/24 00:11:02;;;;;;;6.00;3.27;;;;;;;11.29;100.00;99701.75;4980285;28;20144;-81
2023/03/24 00:13:28;;;;;;;5.00;3.60;;;;;;;11.30;100.00;99708.84;4983620;28;20026;-82
2023/03/24 00:15:54;;;;;;;6.40;3.40;;;;;;;11.31;100.00;99682.53;4979676;28;20093;-81
2023/03/24 00:18:21;;;;;;;6.63;3.30;;;;;;;11.34;100.00;99694.78;4982763;28;20039;-81
2023/03/24 00:20:47;;;;;;;6.93;3.77;;;;;;;11.39;100.00;99695.69;4983296;28;20027;-82
2023/03/24 00:23:14;;;;;;;6.47;3.47;;;;;;;11.47;100.00;99689.03;4987396;28;20156;-81
2023/03/24 00:25:40;;;;;;;5.50;3.20;;;;;;;11.45;100.00;99683.03;4981654;28;20030;-81
2023/03/24 00:28:06;;;;;;;6.17;3.70;;;;;;;11.52;100.00;99680.16;4992342;28;20040;-82
2023/03/24 00:30:33;;;;;;;7.53;3.70;;;;;;;11.55;100.00;99691.34;4977756;28;20122;-82
2023/03/24 00:33:00;;;;;;;6.63;3.67;;;;;;;11.57;100.00;99691.94;4981160;28;20678;-82
2023/03/24 00:35:27;;;;;;;4.67;3.50;;;;;;;11.64;100.00;99668.16;4985864;28;20053;-81
2023/03/24 00:37:53;;;;;;;6.43;3.30;;;;;;;11.71;100.00;99672.59;4983849;28;20085;-81
2023/03/24 00:40:20;;;;;;;5.07;3.60;;;;;;;11.70;100.00;99689.94;4983221;28;20041;-82
2023/03/24 00:42:46;;;;;;;8.47;4.33;;;;;;;11.70;100.00;99666.34;4985950;28;20026;-82
2023/03/24 00:45:18;;;;;;;6.57;3.70;;;;;;;11.72;100.00;99668.81;4981096;28;20026;-82
2023/03/24 00:47:45;;;;;;;6.33;3.43;;;;;;;11.76;100.00;99667.25;4983547;28;20029;-82
2023/03/24 00:50:16;;;;;;;4.90;3.27;;;;;;;11.85;100.00;99673.09;4987700;28;20592;-81
2023/03/24 00:52:46;;;;;;;5.63;3.80;;;;;;;11.88;100.00;99657.09;4981031;28;20027;-81
2023/03/24 00:55:14;;;;;;;5.57;3.27;;;;;;;11.91;100.00;99669.34;4983829;28;20173;-82
2023/03/24 00:57:48;;;;;;;6.67;3.40;;;;;;;11.97;100.00;99661.06;4983214;28;20045;-82
2023/03/24 01:00:19;;;;;;;7.05;4.15;;;;;;;12.02;100.00;99652.16;4986349;28;21760;-82
2023/03/24 01:02:52;;;;;;;5.83;3.57;;;;;;;12.04;100.00;99646.50;4983077;28;20026;-82
2023/03/24 01:05:19;;;;;;;6.77;3.60;;;;;;;12.01;100.00;99642.41;4981882;28;20490;-82
2023/03/24 01:07:50;;;;;;;5.77;3.40;;;;;;;11.98;100.00;99634.72;4982159;28;20113;-81
2023/03/24 01:10:18;;;;;;;5.80;3.47;;;;;;;12.06;100.00;99609.91;4975383;28;20054;-81
2023/03/24 01:12:44;;;;;;;4.77;3.30;;;;;;;12.07;100.00;99632.41;4985603;28;20041;-82
2023/03/24 01:15:16;;;;;;;5.10;3.20;;;;;;;12.09;100.00;99633.81;4985204;28;20536;-82
2023/03/24 01:17:41;;;;;;;6.07;3.60;;;;;;;12.05;100.00;99618.25;4988977;28;20402;-82
2023/03/24 01:20:10;;;;;;;6.33;3.53;;;;;;;11.99;100.00;99630.94;4976050;28;20031;-82
2023/03/24 01:22:38;;;;;;;4.90;3.30;;;;;;;11.95;100.00;99614.38;4973870;28;21626;-82
2023/03/24 01:25:05;;;;;;;5.60;3.50;;;;;;;11.98;100.00;99603.00;4975341;28;20413;-80
2023/03/24 01:27:31;;;;;;;7.13;3.70;;;;;;;11.95;100.00;99592.66;4974922;28;20065;-81
2023/03/24 01:30:00;;;;;;;5.60;3.40;;;;;;;11.90;100.00;99608.84;4974882;28;20444;-81
2023/03/24 01:32:26;;;;;;;6.10;3.37;;;;;;;11.82;100.00;99620.94;4974017;28;20363;-81
2023/03/24 01:34:52;;;;;;;7.13;3.83;;;;;;;11.81;100.00;99623.91;4974681;28;21797;-81
2023/03/24 01:37:17;;;;;;;5.37;3.23;;;;;;;11.80;100.00;99598.66;4975633;28;20041;-81
2023/03/24 01:39:43;;;;;;;5.10;3.50;;;;;;;11.80;100.00;99622.25;4991091;28;21706;-81
2023/03/24 01:42:18;;;;;;;6.53;3.60;;;;;;;11.73;100.00;99608.84;4974718;28;20042;-81
2023/03/24 01:44:47;;;;;;;5.80;3.30;;;;;;;11.70;100.00;99611.28;4973460;28;20062;-81
2023/03/24 01:47:12;;;;;;;4.60;3.13;;;;;;;11.65;100.00;99593.84;4976228;28;20085;-81
2023/03/24 01:49:54;;;;;;;6.20;3.67;;;;;;;11.61;100.00;99592.69;4981727;28;20130;-81
2023/03/24 01:52:25;;;;;;;8.40;4.17;;;;;;;11.55;100.00;99585.53;4975035;28;20391;-81
2023/03/24 01:55:01;;;;;;;5.73;3.90;;;;;;;11.65;100.00;99601.16;4988930;28;20061;-82
2023/03/24 01:57:31;;;;;;;4.60;3.47;;;;;;;11.64;100.00;99596.78;4986967;28;20040;-83
2023/03/24 01:59:59;;;;;;;6.33;3.73;;;;;;;11.57;100.00;99598.84;4986016;28;20402;-82
2023/03/24 02:02:26;;;;;;;7.27;3.67;;;;;;;11.62;100.00;99590.81;4982773;28;20066;-81
2023/03/24 02:04:57;;;;;;;6.23;3.50;;;;;;;11.63;100.00;99584.31;4974630;28;20062;-81
2023/03/24 02:07:32;;;;;;;6.50;3.70;;;;;;;11.69;100.00;99590.63;4975765;28;20422;-81
2023/03/24 02:09:58;;;;;;;8.00;4.30;;;;;;;11.61;100.00;99557.44;4975277;28;20078;-81
2023/03/24 02:12:24;;;;;;;5.30;3.43;;;;;;;11.68;100.00;99575.41;4983442;28;20152;-82
2023/03/24 02:14:50;;;;;;;6.20;3.80;;;;;;;11.62;100.00;99577.22;4982402;28;20125;-82
2023/03/24 02:17:36;;;;;;;7.07;3.80;;;;;;;11.63;100.00;99555.28;4984369;28;20061;-82
2023/03/24 02:20:51;;;;;;;5.33;3.50;;;;;;;11.66;100.00;99568.34;4987432;28;20026;-83
2023/03/24 02:23:17;;;;;;;;;;;;;;;11.66;100.00;99570.22;4901917;29;20048;-82
2023/03/24 02:25:45;;;;;;;6.17;4.00;;;;;;;11.52;100.00;99572.50;4982782;28;19917;-83
2023/03/24 02:28:18;;;;;;;6.03;3.63;;;;;;;11.53;100.00;99576.81;4986594;28;20053;-83
2023/03/24 02:31:05;;;;;;;5.27;3.70;;;;;;;11.55;100.00;99580.13;4990786;28;20718;-83
2023/03/24 02:34:08;;;;;;;4.97;3.50;;;;;;;11.46;100.00;99576.19;4989157;28;20416;-82
2023/03/24 02:36:39;;;;;;;5.50;3.93;;;;;;;11.38;100.00;99582.88;4986719;28;20037;-82
2023/03/24 02:39:23;;;;;;;5.63;4.00;;;;;;;11.42;100.00;99594.03;4997363;28;20118;-83
2023/03/24 02:42:05;;;;;;;5.53;3.75;;;;;;;11.41;100.00;99582.38;4984763;28;20383;-82
2023/03/24 02:44:40;;;;;;;5.47;3.63;;;;;;;11.41;100.00;99570.69;4989774;28;20046;-83
2023/03/24 02:47:15;;;;;;;7.03;3.80;;;;;;;11.37;100.00;99564.09;4990692;28;21841;-83
2023/03/24 02:49:45;;;;;;;5.13;3.90;;;;;;;11.25;100.00;99592.16;4989499;28;20150;-83
2023/03/24 02:52:23;;;;;;;5.23;4.00;;;;;;;11.26;100.00;99588.38;4993733;28;20548;-83
2023/03/24 02:54:59;;;;;;;5.10;3.73;;;;;;;11.26;100.00;99599.22;4991582;28;20141;-82
2023/03/24 02:57:27;;;;;;;4.47;3.50;;;;;;;11.26;100.00;99601.94;4978997;28;20062;-81
2023/03/24 03:00:18;;;;;;;4.40;3.60;;;;;;;11.27;100.00;99598.16;4978967;28;20069;-81
2023/03/24 03:02:56;;;;;;;5.30;3.70;;;;;;;11.30;100.00;99589.53;4978181;28;20034;-81
2023/03/24 03:05:31;;;;;;;8.23;3.53;;;;;;;11.31;100.00;99599.31;4975757;28;20030;-81
2023/03/24 03:07:59;;;;;;;4.50;3.53;;;;;;;11.37;100.00;99611.06;4978147;28;20049;-81
2023/03/24 03:10:30;;;;;;;3.93;3.47;;;;;;;11.38;100.00;99626.25;4991771;28;20034;-81
2023/03/24 03:13:00;;;;;;;4.27;3.60;;;;;;;11.43;100.00;99649.91;4984994;28;20548;-82
2023/03/24 03:15:33;;;;;;;5.17;3.57;;;;;;;11.41;100.00;99657.47;4986120;28;21247;-82
2023/03/24 03:18:14;;;;;;;3.43;3.07;;;;;;;11.36;100.00;99666.34;4986617;28;20031;-82
2023/03/24 03:20:49;;;;;;;3.17;2.80;;;;;;;11.32;100.00;99663.31;4993553;28;20027;-82
2023/03/24 03:23:22;;;;;;;2.60;1.80;;;;;;;11.16;100.00;99674.97;4985615;28;20038;-82
2023/03/24 03:25:52;;;;;;;2.70;1.30;;;;;;;11.03;100.00;99694.22;4982061;28;20042;-82
2023/03/24 03:28:22;;;;;;;3.00;1.53;;;;;;;11.00;100.00;99683.88;4985757;28;20128;-82
2023/03/24 03:30:56;;;;;;;2.10;1.20;;;;;;;10.80;100.00;99680.56;4993249;28;20046;-81
2023/03/24 03:33:32;;;;;;;1.60;1.30;;;;;;;10.69;100.00;99704.97;4984148;28;20034;-81
2023/03/24 03:36:10;;;;;;;3.93;1.50;;;;;;;10.60;100.00;99713.47;4978274;28;20026;-81
2023/03/24 03:39:05;;;;;;;3.07;1.50;;;;;;;10.53;100.00;99714.69;4976778;28;20041;-81
2023/03/24 03:41:31;;;;;;;4.57;1.63;;;;;;;10.36;100.00;99738.97;4977146;28;20031;-81
2023/03/24 03:43:56;;;;;;;2.77;1.73;;;;;;;10.27;100.00;99752.84;4975317;28;20034;-81
2023/03/24 03:46:22;;;;;;;3.53;1.30;;;;;;;10.24;100.00;99753.31;4975732;28;20049;-81
2023/03/24 03:48:48;;;;;;;5.43;1.73;;;;;;;10.14;100.00;99743.09;4976301;28;20131;-81
2023/03/24 03:51:14;;;;;;;4.63;1.90;;;;;;;10.11;100.00;99757.06;4989699;28;20121;-81
2023/03/24 03:53:52;;;;;;;5.07;2.23;;;;;;;10.12;100.00;99757.91;4975129;28;20059;-81
2023/03/24 03:56:22;;;;;;;7.50;1.90;;;;;;;9.96;100.00;99756.72;4974352;28;20038;-81
2023/03/24 03:58:48;;;;;;;6.90;2.53;;;;;;;9.90;100.00;99744.13;4976670;28;20046;-81
2023/03/24 04:01:20;;;;;;;5.30;2.20;;;;;;;9.86;100.00;99767.28;4978848;28;20386;-81
2023/03/24 04:04:10;;;;;;;4.53;2.30;;;;;;;9.87;100.00;99758.13;4978947;28;20035;-81
2023/03/24 04:06:53;;;;;;;6.97;2.33;;;;;;;9.82;100.00;99777.78;4977285;28;20042;-81
2023/03/24 04:09:30;;;;;;;5.43;2.40;;;;;;;9.79;100.00;99780.91;4976605;28;20040;-81
2023/03/24 04:12:14;;;;;;;5.70;2.50;;;;;;;9.78;100.00;99782.00;4994497;28;20034;-81
2023/03/24 04:15:05;;;;;;;9.40;2.85;;;;;;;9.66;100.00;99794.69;4984589;28;20592;-81
2023/03/24 04:17:48;;;;;;;6.53;3.10;;;;;;;9.69;100.00;99799.63;4985222;28;20042;-82
2023/03/24 04:20:21;;;;;;;7.17;3.70;;;;;;;9.70;100.00;99802.09;4984391;28;20088;-82
2023/03/24 04:23:08;;;;;;;8.37;4.10;;;;;;;9.69;100.00;99808.53;4984873;28;20031;-82
2023/03/24 04:25:48;;;;;;;10.47;4.63;;;;;;;9.79;100.00;99821.50;4980266;28;20533;-82
2023/03/24 04:28:37;;;;;;;8.13;4.00;;;;;;;9.79;100.00;99832.31;4984103;28;20080;-82
2023/03/24 04:31:15;;;;;;;11.07;4.10;;;;;;;9.76;100.00;99838.19;4976412;28;20027;-81
2023/03/24 04:33:57;;;;;;;11.83;4.30;;;;;;;9.73;100.00;99827.84;4976571;28;20066;-81
2023/03/24 04:36:30;;;;;;;11.63;3.90;;;;;;;9.69;100.00;99826.66;4977043;28;20037;-81
2023/03/24 04:39:00;;;;;;;11.35;3.72;;;;;;;9.70;100.00;99844.56;4978855;28;20057;-81
2023/03/24 04:41:28;;;;;;;10.43;3.77;;;;;;;9.63;100.00;99829.22;4976386;28;20042;-81
2023/03/24 04:43:56;;;;;;;10.07;3.90;;;;;;;9.62;100.00;99843.00;4977696;28;20036;-81
2023/03/24 04:46:23;;;;;;;10.03;3.63;;;;;;;9.60;100.00;99845.09;4992043;28;20042;-81
2023/03/24 04:48:49;;;;;;;11.07;3.97;;;;;;;9.55;100.00;99847.69;4975634;28;20398;-81
2023/03/24 04:51:19;;;;;;;10.00;3.90;;;;;;;9.50;100.00;99848.34;4977321;28;20061;-82
2023/03/24 04:53:46;;;;;;;11.87;3.93;;;;;;;9.45;100.00;99851.75;4981627;28;20494;-81
2023/03/24 04:56:33;;;;;;;10.00;3.80;;;;;;;9.39;100.00;99854.53;4978390;28;20066;-81
2023/03/24 04:58:58;;;;;;;11.07;4.00;;;;;;;9.33;100.00;99856.28;4979081;28;21001;-81
2023/03/24 05:01:28;;;;;;;13.40;4.00;;;;;;;9.22;100.00;99851.63;4997129;28;20042;-81
2023/03/24 05:03:55;;;;;;;12.50;3.70;;;;;;;9.24;100.00;99858.47;4984439;28;20041;-81
2023/03/24 05:06:20;;;;;;;10.67;3.53;;;;;;;9.25;100.00;99867.41;4997207;28;20034;-82
2023/03/24 05:08:46;;;;;;;11.63;3.30;;;;;;;9.18;100.00;99864.78;4975608;28;20173;-81
2023/03/24 05:11:12;;;;;;;11.33;3.30;;;;;;;9.19;100.00;99866.41;4994062;28;20030;-82
2023/03/24 05:13:37;;;;;;;11.17;3.27;;;;;;;9.09;100.00;99858.84;4978883;28;20042;-82
2023/03/24 05:16:03;;;;;;;9.77;2.87;;;;;;;9.10;100.00;99874.00;4961415;28;20030;-81
2023/03/24 05:18:28;;;;;;;10.60;2.90;;;;;;;9.06;100.00;99872.00;4975786;28;20193;-81
2023/03/24 05:20:53;;;;;;;13.03;3.40;;;;;;;9.01;100.00;99877.25;4977467;28;20050;-81
2023/03/24 05:23:19;;;;;;;14.20;3.33;;;;;;;8.98;100.00;99886.63;4976306;28;20031;-81
2023/03/24 05:25:46;;;;;;;12.33;3.07;;;;;;;9.03;100.00;99891.34;4976485;28;20035;-81
2023/03/24 05:28:11;;;;;;;15.03;3.40;;;;;;;9.04;100.00;99891.13;4976774;28;20034;-81
2023/03/24 05:30:37;;;;;;;14.97;3.90;;;;;;;9.10;100.00;99902.91;4977112;28;20030;-81
2023/03/24 05:33:02;;;;;;;12.27;3.37;;;;;;;9.08;100.00;99900.44;4974868;28;20527;-81
2023/03/24 05:35:27;;;;;;;16.10;4.00;;;;;;;9.11;100.00;99904.56;4977653;28;20039;-81
2023/03/24 05:37:53;;;;;;;17.57;4.00;;;;;;;9.10;100.00;99911.03;4993687;28;20037;-81
2023/03/24 05:40:18;;;;;;;15.77;4.10;;;;;;;9.08;100.00;99910.41;4979161;28;20462;-81
2023/03/24 05:42:44;;;;;;;10.27;3.90;;;;;;;9.06;100.00;99913.34;4994459;28;20050;-81
2023/03/24 05:45:10;;;;;;;15.07;4.37;;;;;;;9.07;100.00;99912.31;4989212;28;20048;-81
2023/03/24 05:47:36;;;;;;;17.27;4.40;;;;;;;9.00;100.00;99914.22;4981295;28;20038;-81
2023/03/24 05:50:02;;;;;;;13.13;4.13;;;;;;;8.99;100.00;99919.88;4978855;28;20030;-81
2023/03/24 05:52:28;;;;;;;14.73;4.20;;;;;;;8.99;100.00;99917.16;4978714;28;20401;-81
2023/03/24 05:54:53;;;;;;;11.30;3.70;;;;;;;9.02;100.00;99930.25;4977290;28;20027;-81
2023/03/24 05:57:20;;;;;;;13.73;3.77;;;;;;;9.05;100.00;99927.09;4992161;28;20062;-81
2023/03/24 05:59:45;;;;;;;10.17;3.50;;;;;;;9.07;100.00;99928.50;4976443;28;20077;-81
2023/03/24 06:02:10;;;;;;;11.53;3.77;;;;;;;9.03;100.00;99927.31;4991593;28;20129;-81
2023/03/24 06:04:36;;;;;;;12.40;3.67;;;;;;;9.04;100.00;99926.25;4978557;28;20030;-81
2023/03/24 06:07:02;;;;;;;10.27;3.60;;;;;;;9.05;100.00;99927.91;4963285;28;20050;-82
2023/03/24 06:09:31;;;;;;;15.97;4.07;;;;;;;9.08;100.00;99924.78;4993908;28;20038;-81
2023/03/24 06:11:58;;;;;;;11.63;3.50;;;;;;;9.08;100.00;99926.63;4977799;28;20034;-81
2023/03/24 06:14:23;;;;;;;12.73;3.47;;;;;;;9.12;100.00;99925.97;4979241;28;20067;-81
2023/03/24 06:16:49;;;;;;;13.87;3.50;;;;;;;9.15;100.00;99931.97;4978276;28;20077;-81
2023/03/24 06:19:15;;;;;;;10.27;3.27;;;;;;;9.17;100.00;99933.41;4977970;28;20062;-81
2023/03/24 06:21:41;;;;;;;13.57;3.60;;;;;;;9.19;100.00;99931.28;4979391;28;20039;-81
2023/03/24 06:24:06;;;;;;;11.30;3.40;;;;;;;9.32;100.00;99940.31;4984594;28;20085;-81
2023/03/24 06:26:32;;;;;;;12.53;3.73;;;;;;;9.33;100.00;99952.75;4983069;28;20062;-82
2023/03/24 06:28:57;;;;;;;14.60;3.67;;;;;;;9.33;100.00;99944.66;4981260;28;20085;-81
2023/03/24 06:31:23;;;;;;;14.17;3.37;;;;;;;9.35;100.00;99948.78;4984389;28;20030;-82
2023/03/24 06:33:51;;;;;;;11.60;3.70;;;;;;;9.36;100.00;99947.72;4984215;28;20109;-81
2023/03/24 06:36:17;;;;;;;14.63;3.50;;;;;;;9.36;100.00;99941.50;4985057;28;20034;-82
2023/03/24 06:38:43;;;;;;;12.37;3.70;;;;;;;9.35;100.00;99954.19;4988877;28;20038;-81
2023/03/24 06:41:09;;;;;;;10.07;3.47;;;;;;;9.38;100.00;99961.03;4984718;28;20040;-82
2023/03/24 06:43:34;;;;;;;13.13;3.13;;;;;;;9.41;100.00;99960.56;4985014;28;20472;-81
2023/03/24 06:46:00;;;;;;;16.03;3.60;;;;;;;9.38;100.00;99961.84;4983235;28;20034;-81
2023/03/24 06:48:26;;;;;;;14.23;3.20;;;;;;;9.44;100.00;99962.84;4983185;28;20457;-81
2023/03/24 06:50:53;;;;;;;14.37;3.50;;;;;;;9.49;100.00;99968.38;4986087;28;20042;-81
2023/03/24 06:53:20;;;;;;;13.50;3.50;;;;;;;9.54;100.00;99968.53;4984169;28;20030;-81
2023/03/24 06:55:47;;;;;;;13.97;3.37;;;;;;;9.65;100.00;99977.75;4996307;28;21086;-82
2023/03/24 06:58:13;;;;;;;12.57;3.33;;;;;;;9.76;100.00;99968.06;4984894;28;20025;-82
2023/03/24 07:00:40;;;;;;;12.83;3.10;;;;;;;9.77;100.00;99965.09;4990144;28;20820;-81
2023/03/24 07:03:06;;;;;;;12.30;3.30;;;;;;;9.86;100.00;99979.16;4986166;28;20333;-81
2023/03/24 07:05:32;;;;;;;14.30;3.60;;;;;;;9.88;100.00;99976.22;4979483;28;20497;-81
2023/03/24 07:07:58;;;;;;;13.10;3.67;;;;;;;9.94;100.00;99980.72;4981563;28;20066;-81
2023/03/24 07:10:23;;;;;;;16.97;3.70;;;;;;;10.02;100.00;99982.28;4982311;28;20031;-82
2023/03/24 07:12:49;;;;;;;17.60;3.40;;;;;;;10.07;100.00;99987.84;4981645;28;20134;-81
2023/03/24 07:15:14;;;;;;;17.00;3.23;;;;;;;10.11;100.00;99987.13;4979918;28;20038;-81
2023/03/24 07:17:41;;;;;;;15.70;3.20;;;;;;;10.15;100.00;99990.22;4982257;28;20035;-81
2023/03/24 07:20:07;;;;;;;14.97;3.10;;;;;;;10.13;100.00;99992.31;4980860;28;20043;-81
2023/03/24 07:22:35;;;;;;;17.10;3.37;;;;;;;10.23;100.00;100000.72;4972453;28;20038;-81
2023/03/24 07:25:03;;;;;;;16.60;3.80;;;;;;;10.27;100.00;100001.09;4994364;28;20033;-81
2023/03/24 07:27:31;;;;;;;12.90;3.40;;;;;;;10.33;100.00;99999.34;4990724;28;20042;-81
2023/03/24 07:29:57;;;;;;;16.23;3.17;;;;;;;10.37;100.00;100011.41;4982925;28;20124;-82
2023/03/24 07:32:23;;;;;;;15.00;3.43;;;;;;;10.40;100.00;100006.34;4979578;28;20042;-81
2023/03/24 07:34:49;;;;;;;13.07;3.03;;;;;;;10.47;100.00;100006.22;4980833;28;20042;-81
2023/03/24 07:37:14;;;;;;;16.27;3.30;;;;;;;10.46;100.00;100015.44;4980044;28;20026;-81
2023/03/24 07:39:40;;;;;;;15.17;3.20;;;;;;;10.50;100.00;99999.53;4980418;28;20390;-81
2023/03/24 07:42:05;;;;;;;15.47;3.33;;;;;;;10.64;100.00;100009.91;4976706;28;20081;-81
2023/03/24 07:44:30;;;;;;;16.70;3.83;;;;;;;10.68;100.00;100014.88;4989745;28;20038;-81
2023/03/24 07:46:56;;;;;;;14.73;3.27;;;;;;;10.76;100.00;100019.97;4983786;28;20038;-82
2023/03/24 07:49:21;;;;;;;15.10;3.37;;;;;;;10.81;100.00;100020.91;4986246;28;20478;-82
2023/03/24 07:51:47;;;;;;;13.50;3.57;;;;;;;10.78;100.00;100026.81;4981713;28;20065;-82
2023/03/24 07:54:12;;;;;;;14.27;3.47;;;;;;;10.83;100.00;100023.38;4983696;28;20050;-82
2023/03/24 07:56:38;;;;;;;14.03;3.17;;;;;;;10.89;100.00;100030.59;4985425;28;20054;-82
2023/03/24 07:59:03;;;;;;;18.13;4.20;;;;;;;10.86;100.00;100033.75;4983676;28;20064;-82
2023/03/24 08:01:28;;;;;;;16.97;3.63;;;;;;;11.03;100.00;100036.59;4984284;28;20026;-82
2023/03/24 08:03:54;;;;;;;14.67;3.60;;;;;;;11.05;100.00;100041.78;4986904;28;20046;-82
2023/03/24 08:06:20;;;;;;;17.07;3.83;;;;;;;11.18;100.00;100048.84;4984754;28;20034;-81
2023/03/24 08:08:45;;;;;;;14.20;3.77;;;;;;;11.38;100.00;100040.38;4982422;28;20398;-82
2023/03/24 08:11:11;;;;;;;14.67;3.43;;;;;;;11.51;100.00;100056.41;4982929;28;20110;-82
2023/03/24 08:13:36;;;;;;;14.00;3.37;;;;;;;11.54;99.85;100053.22;4985350;28;20034;-82
2023/03/24 08:16:02;;;;;;;19.03;3.50;;;;;;;11.44;99.41;100053.00;4977890;28;20049;-82
2023/03/24 08:18:28;;;;;;;11.90;3.00;;;;;;;11.37;100.00;100060.41;4976966;28;20046;-82
2023/03/24 08:20:57;;;;;;;16.67;3.60;;;;;;;11.38;100.00;100053.94;4981473;28;20042;-83
2023/03/24 08:23:22;;;;;;;12.23;3.40;;;;;;;11.46;100.00;100067.13;4984928;28;20038;-83
2023/03/24 08:25:49;;;;;;;12.30;3.50;;;;;;;11.35;99.82;100073.41;4984282;28;20038;-83
2023/03/24 08:28:15;;;;;;;13.03;3.13;;;;;;;11.34;100.00;100058.19;4981955;28;20038;-83
2023/03/24 08:30:42;;;;;;;15.57;3.77;;;;;;;11.29;100.00;100064.31;4985708;28;20035;-83
2023/03/24 08:33:11;;;;;;;12.23;3.67;;;;;;;11.45;100.00;100070.91;4977617;28;20038;-82
2023/03/24 08:35:39;;;;;;;16.03;4.07;;;;;;;11.50;98.09;100081.88;4976175;28;20062;-82
2023/03/24 08:38:06;;;;;;;12.87;3.57;;;;;;;11.59;97.87;100080.47;4987132;28;20121;-82
2023/03/24 08:40:33;;;;;;;13.53;3.70;;;;;;;11.55;97.15;100076.56;4993428;28;20066;-82
2023/03/24 08:43:01;;;;;;;11.63;3.50;;;;;;;11.47;97.50;100076.94;4977692;28;20034;-83
2023/03/24 08:45:29;;;;;;;13.40;4.07;;;;;;;11.44;96.48;100080.13;4975870;28;20117;-82
2023/03/24 08:47:57;;;;;;;11.57;3.57;;;;;;;11.41;95.12;100096.84;4979481;28;20064;-82
2023/03/24 08:50:26;;;;;;;12.40;3.30;;;;;;;11.32;94.33;100096.38;4990464;28;20035;-82
2023/03/24 08:52:53;;;;;;;15.83;3.23;;;;;;;11.20;94.99;100090.13;4978178;28;20098;-83
2023/03/24 08:55:23;;;;;;;14.43;3.30;;;;;;;11.22;95.59;100088.84;4983440;28;20038;-83
2023/03/24 08:57:49;;;;;;;9.30;3.03;;;;;;;11.21;95.84;100089.91;4977979;28;20033;-82
2023/03/24 09:00:17;;;;;;;16.10;3.63;;;;;;;11.20;97.53;100090.13;4977440;28;20640;-82
2023/03/24 09:02:45;;;;;;;14.80;3.63;;;;;;;11.15;98.26;100094.38;4974146;28;20046;-83
2023/03/24 09:05:12;;;;;;;11.00;3.00;;;;;;;11.12;97.21;100088.59;4978435;28;20559;-83
2023/03/24 09:07:38;;;;;;;12.90;3.43;;;;;;;11.08;97.54;100082.81;4980222;28;20034;-83
2023/03/24 09:10:06;;;;;;;12.30;3.70;;;;;;;11.01;100.00;100101.06;4979275;28;20038;-83
2023/03/24 09:12:32;;;;;;;15.83;3.07;;;;;;;11.12;97.47;100097.56;4977991;28;20501;-82
2023/03/24 09:14:57;;;;;;;13.30;3.90;;;;;;;11.15;97.33;100091.66;4976258;28;20030;-83
2023/03/24 09:17:23;;;;;;;14.23;3.93;;;;;;;11.14;97.07;100097.31;4990247;28;20042;-83
2023/03/24 09:19:48;;;;;;;12.93;3.47;;;;;;;11.30;96.29;100101.22;4977772;28;20537;-82
2023/03/24 09:22:13;;;;;;;13.97;3.60;;;;;;;11.30;96.47;100099.34;4978063;28;20038;-82
2023/03/24 09:24:39;;;;;;;12.40;3.33;;;;;;;11.29;95.39;100119.38;4980756;28;20026;-83
2023/03/24 09:27:05;;;;;;;11.93;3.50;;;;;;;11.52;95.20;100108.75;5001260;28;20033;-83
2023/03/24 09:29:30;;;;;;;13.70;3.70;;;;;;;11.83;97.95;100104.84;4985131;28;20121;-83
2023/03/24 09:31:56;;;;;;;14.23;4.10;;;;;;;11.96;94.96;100118.19;4987049;28;20113;-83
2023/03/24 09:34:23;;;;;;;12.47;3.30;;;;;;;12.13;95.37;100114.72;4984615;28;20129;-83
2023/03/24 09:36:48;;;;;;;15.77;3.80;;;;;;;12.11;92.95;100103.31;4984631;28;20467;-83
2023/03/24 09:39:14;;;;;;;10.90;3.70;;;;;;;12.01;91.10;100117.50;4980344;28;20038;-83
2023/03/24 09:41:43;;;;;;;13.17;3.50;;;;;;;11.80;92.67;100116.19;4976299;28;20038;-82
2023/03/24 09:44:21;;;;;;;13.13;3.60;;;;;;;11.47;99.38;100148.28;4977652;28;20034;-82
2023/03/24 09:47:02;;;;;;;11.47;3.30;;;;;;;11.11;100.00;100138.44;4979031;28;20035;-83
2023/03/24 09:49:31;;;;;;;12.77;3.50;;;;;;;10.88;100.00;100128.38;4977684;28;20038;-82
2023/03/24 09:52:05;;;;;;;12.20;3.60;;;;;;;10.89;100.00;100130.88;4978146;28;20050;-82
2023/03/24 09:54:52;;;;;;;14.00;4.28;;;;;;;11.14;100.00;100129.84;4976999;28;20023;-83
2023/03/24 09:57:27;;;;;;;11.73;3.57;;;;;;;11.44;100.00;100137.91;4981913;28;21247;-83
2023/03/24 09:59:53;;;;;;;10.80;3.40;;;;;;;11.70;100.00;100130.34;4975365;28;20026;-83
2023/03/24 10:02:20;;;;;;;12.97;3.80;;;;;;;11.69;100.00;100146.88;4977056;28;21817;-83
2023/03/24 10:04:47;;;;;;;11.90;3.80;;;;;;;11.67;100.00;100147.13;4987284;28;20030;-84
2023/03/24 10:07:22;;;;;;;10.10;3.87;;;;;;;11.58;100.00;100151.25;4989431;28;20057;-84
2023/03/24 10:09:55;;;;;;;15.73;3.57;;;;;;;11.61;97.94;100146.19;4988818;28;20512;-84
2023/03/24 10:12:46;;;;;;;15.47;4.07;;;;;;;11.88;98.39;100155.72;4991745;28;20105;-84
2023/03/24 10:15:11;;;;;;;12.00;3.70;;;;;;;11.89;96.79;100157.38;4989834;28;20030;-84
2023/03/24 10:17:42;;;;;;;11.60;3.43;;;;;;;11.93;95.73;100159.38;5001187;28;20034;-84
2023/03/24 10:20:29;;;;;;;14.17;3.70;;;;;;;11.81;97.77;100150.41;4984103;28;20023;-84
2023/03/24 10:23:30;;;;;;;12.43;3.93;;;;;;;11.81;98.66;100155.84;4988404;28;20058;-84
2023/03/24 10:26:03;;;;;;;14.83;3.90;;;;;;;11.78;99.03;100153.59;4989358;28;20129;-84
2023/03/24 10:28:51;;;;;;;14.07;3.67;;;;;;;11.90;97.11;100159.84;4989146;28;20023;-84
2023/03/24 10:31:20;;;;;;;13.20;3.50;;;;;;;12.02;95.93;100156.31;4987591;28;20500;-83
2023/03/24 10:33:46;;;;;;;17.17;3.47;;;;;;;11.96;95.25;100152.66;4987190;28;20378;-83
2023/03/24 10:36:14;;;;;;;12.37;3.47;;;;;;;11.89;96.54;100147.34;5003756;28;20022;-83
2023/03/24 10:38:40;;;;;;;13.90;3.60;;;;;;;11.91;94.37;100152.53;4984513;28;20023;-83
2023/03/24 10:41:12;;;;;;;12.23;3.73;;;;;;;11.80;92.84;100156.91;4981161;28;20042;-83
2023/03/24 10:43:38;;;;;;;13.03;3.63;;;;;;;12.01;92.40;100158.22;4987556;28;20026;-83
2023/03/24 10:46:03;;;;;;;10.20;3.20;;;;;;;12.41;91.98;100153.88;4990697;28;20538;-83
2023/03/24 10:48:43;;;;;;;12.10;3.57;;;;;;;12.56;90.68;100147.91;5002301;28;20053;-83
2023/03/24 10:51:18;;;;;;;11.17;3.20;;;;;;;12.68;88.62;100154.13;5005661;28;20034;-83
2023/03/24 10:53:47;;;;;;;11.53;3.13;;;;;;;12.88;88.12;100142.81;4988248;28;20030;-84
2023/03/24 10:56:41;;;;;;;14.63;3.70;;;;;;;12.93;88.89;100148.34;4984847;28;20134;-83
2023/03/24 10:59:30;;;;;;;14.20;3.43;;;;;;;12.89;88.28;100138.19;4981782;28;20939;-83
2023/03/24 11:02:08;;;;;;;10.77;2.87;;;;;;;12.85;85.95;100140.56;4993404;28;20034;-83
2023/03/24 11:04:35;;;;;;;10.43;2.63;;;;;;;12.69;83.78;100138.63;5003935;28;20496;-84
2023/03/24 11:07:03;;;;;;;8.60;2.40;;;;;;;12.78;82.21;100137.19;4990502;28;20034;-83
2023/03/24 11:09:31;;;;;;;8.90;2.40;;;;;;;12.74;81.77;100147.75;4990037;28;20069;-85
2023/03/24 11:12:02;;;;;;;10.97;2.50;;;;;;;12.75;80.42;100132.25;4994631;28;20441;-84
2023/03/24 11:14:28;;;;;;;9.30;2.60;;;;;;;13.09;85.10;100135.00;4993917;28;20110;-85
2023/03/24 11:17:13;;;;;;;9.00;2.30;;;;;;;13.17;81.46;100145.47;4968668;28;20039;-85
2023/03/24 11:19:48;;;;;;;8.67;2.83;;;;;;;13.15;80.59;100150.34;5001169;28;20109;-85
2023/03/24 11:22:14;;;;;;;10.13;2.50;;;;;;;13.21;81.39;100140.38;4985725;28;20062;-84
2023/03/24 11:24:40;;;;;;;7.60;2.30;;;;;;;13.22;81.83;100145.56;4967831;28;20069;-84
2023/03/24 11:27:05;;;;;;;6.20;2.20;;;;;;;13.00;79.81;100148.16;4985498;28;20046;-85
2023/03/24 11:29:38;;;;;;;11.27;2.63;;;;;;;12.90;80.14;100143.38;4999061;28;20045;-85
2023/03/24 11:32:13;;;;;;;10.13;2.63;;;;;;;12.70;82.09;100145.72;4986702;28;20038;-84
2023/03/24 11:34:43;;;;;;;;;;;;;;;12.87;82.81;100137.63;4986458;28;20543;-84